• Join FlightAware (Why Join?)
  • Login
  • US Flag 
Rudolph Flight #1: Arrived! 
10:13AM EST


 

Airport Tracker/Info


-or-


 

Live Flight TrackerFlight Track Log ✈ APC51 ✈ 10-May-2013 ✈ KGEG - KBFI

Flight Track Log - Related Links

Times and Time Zones

All times are in EDT time to prevent confusion due to time zone crossing. See the APC51 flight status page for this flight to view local times or setup timezone preferences in your user account.

Time Position Orientation Groundspeed Altitude Reporting Facility
EDT Latitude Longitude Course Direction KTS MPH feet Rate Location/Type
05:08AM 47.6178 -117.5744 273° West 91 105 3,600  Level Seattle Center
05:09AM 47.6189 -117.6114 273° West 90 104 4,800 1,200 Climbing Seattle Center
05:10AM 47.6183 -117.6547 269° West 103 119 6,000 1,140 Climbing Seattle Center
05:11AM 47.6178 -117.7008 269° West 110 127 7,100 1,080 Climbing Seattle Center
05:12AM 47.6175 -117.7481 270° West 115 132 8,200 1,140 Climbing Seattle Center
05:13AM 47.6181 -117.7975 271° West 120 138 9,400 1,080 Climbing Seattle Center
05:14AM 47.6178 -117.8497 270° West 127 146 10,400 600 Climbing Seattle Center
05:15AM 47.6189 -117.9144 271° West 158 182 10,600 120 Climbing Seattle Center
05:16AM 47.6183 -117.9844 269° West 167 192 10,700  Climbing Seattle Center
05:17AM 47.6181 -118.0519 270° West 163 188 10,700  Level Seattle Center
05:18AM 47.6181 -118.1206 270° West 166 191 10,700  Level Seattle Center
05:19AM 47.6172 -118.1919 269° West 173 199 10,700  Level Seattle Center
05:20AM 47.6167 -118.2650 269° West 177 204 10,700  Level Seattle Center
05:21AM 47.6175 -118.3378 271° West 179 206 10,700  Level Seattle Center
05:22AM 47.6164 -118.4100 269° West 177 204 10,700  Level Seattle Center
05:23AM 47.6172 -118.4822 271° West 176 203 10,700  Level Seattle Center
05:24AM 47.6167 -118.5544 269° West 177 204 10,700  Level Seattle Center
05:25AM 47.6164 -118.6239 270° West 170 196 10,700  Level Seattle Center
05:26AM 47.6156 -118.6956 269° West 176 203 10,700  Level Seattle Center
05:27AM 47.6144 -118.7661 269° West 174 200 10,700  Level Seattle Center
05:28AM 47.6136 -118.8383 269° West 177 204 10,700  Level Seattle Center
05:29AM 47.6139 -118.9114 270° West 180 207 10,700  Level Seattle Center
05:30AM 47.6133 -118.9847 269° West 177 204 10,700  Level Seattle Center
05:31AM 47.6125 -119.0569 269° West 179 206 10,700  Level Seattle Center
05:32AM 47.6111 -119.1297 268° West 177 204 10,700  Level Seattle Center
05:33AM 47.6106 -119.2033 269° West 178 205 10,700  Level Seattle Center
05:34AM 47.6097 -119.2761 269° West 179 206 10,700  Level Seattle Center
05:35AM 47.6083 -119.3489 268° West 177 204 10,700  Level Seattle Center
05:36AM 47.6075 -119.4197 269° West 172 198 10,700  Level Seattle Center
05:37AM 47.6064 -119.4900 269° West 171 197 10,700  Level Seattle Center
05:38AM 47.6056 -119.5578 269° West 167 192 10,700  Level Seattle Center
05:39AM 47.6044 -119.6264 269° West 169 194 10,700  Level Seattle Center
05:40AM 47.6031 -119.6961 268° West 169 194 10,700  Level Seattle Center
05:41AM 47.6033 -119.7672 270° West 174 200 10,700  Level Seattle Center
05:42AM 47.6006 -119.8378 267° West 171 197 10,700  Level Seattle Center
05:43AM 47.6003 -119.9086 270° West 172 198 10,700  Level Seattle Center
05:44AM 47.5972 -119.9792 266° West 172 198 10,700  Level Seattle Center
05:45AM 47.5981 -120.0472 271° West 167 192 10,700  Level Seattle Center
05:46AM 47.5933 -120.1169 264° West 170 196 10,700  Level Seattle Center
05:47AM 47.5956 -120.1867 273° West 170 196 10,700  Level Seattle Center
05:48AM 47.5917 -120.2536 265° West 163 188 10,700  Level Seattle Center
05:49AM 47.5903 -120.3211 268° West 165 190 10,700  Level Seattle Center
05:50AM 47.5900 -120.3889 270° West 167 192 10,700  Level Seattle Center
05:51AM 47.5881 -120.4567 268° West 165 190 10,700  Level Seattle Center
05:52AM 47.5861 -120.5242 268° West 165 190 10,700  Level Seattle Center
05:53AM 47.5844 -120.5919 268° West 165 190 10,700  Level Seattle Center
05:54AM 47.5828 -120.6594 268° West 165 190 10,700  Level Seattle Center
05:55AM 47.5814 -120.7350 268° West 169 194 10,700  Level Seattle Center
05:56AM 47.5811 -120.7983 270° West 169 194 10,700  Level Seattle Center
05:57AM 47.5786 -120.8656 267° West 165 190 10,700  Level Seattle Center
05:58AM 47.5764 -120.9336 267° West 166 191 10,700  Level Seattle Center
05:59AM 47.5742 -121.0017 267° West 168 193 10,700  Level Seattle Center
06:00AM 47.5728 -121.0717 268° West 171 197 10,700  Level Seattle Center
06:01AM 47.5714 -121.1397 268° West 168 193 10,700  Level Seattle Center
06:01AM 47.5692 -121.1756 265° West 168 193 10,700  Level Seattle Center
06:02AM 47.5678 -121.2086 266° West 171 197 10,700  Level Seattle Center
06:02AM 47.5661 -121.2567 267° West 170 196 10,700  Level Seattle Center
06:03AM 47.5656 -121.2886 269° West 171 197 10,700  Level Seattle Center
06:03AM 47.5644 -121.3269 268° West 170 196 10,700  Level Seattle Center
06:04AM 47.5642 -121.3581 269° West 171 197 10,700  Level Seattle Center
06:04AM 47.5619 -121.3942 265° West 170 196 10,700  Level Seattle Center
06:05AM 47.5614 -121.4281 269° West 170 196 10,700  Level Seattle Center
06:05AM 47.5603 -121.4644 267° West 170 196 10,700  Level Seattle Center
06:06AM 47.5603 -121.4975 270° West 171 197 10,700  Level Seattle Center
06:06AM 47.5586 -121.5347 266° West 171 197 10,700  Level Seattle Center
06:07AM 47.5578 -121.5678 268° West 171 197 10,700  Level Seattle Center
06:07AM 47.5542 -121.6031 261° West 169 194 10,700 -540 Level Seattle Center
06:08AM 47.5539 -121.6386 269° West 175 201 10,200 -1,140 Descending Seattle Center
06:09AM 47.5528 -121.6928 268° West 190 219 9,500 -900 Descending Seattle Center
06:09AM 47.5522 -121.7178 268° West 193 222 9,300 -1,140 Descending Seattle Center
06:10AM 47.5486 -121.7708 264° West 197 227 8,400 -1,140 Descending Seattle Center
06:10AM 47.5475 -121.7953 266° West 191 220 8,200 -1,140 Descending Seattle Center
06:11AM 47.5383 -121.8525 257° West 198 228 7,300 -1,440 Descending Seattle Center
06:11AM 47.5336 -121.8761 254° West 203 234 6,800 -1,500 Descending Seattle Center
06:12AM 47.5156 -121.9278 243° Southwest 211 243 5,800 -1,320 Descending Seattle Center
06:12AM 47.5056 -121.9511 238° Southwest 210 242 5,500 -1,140 Descending Seattle Center
06:13AM 47.4825 -121.9986 234° Southwest 212 244 4,700 -1,320 Descending Seattle Center
06:13AM 47.4725 -122.0200 235° Southwest 207 238 4,200 -1,620 Descending Seattle Center
06:14AM 47.4675 -122.0794 263° West 207 238 3,100 -1,740 Descending Seattle Center
06:14AM 47.4664 -122.1044 266° West 202 232 2,500 -1,140 Descending Seattle Center
06:15AM 47.4656 -122.1592 269° West 190 219 2,000 -720 Descending Seattle Center
06:15AM 47.4669 -122.1808 275° West 185 213 1,800 -240 Descending Seattle Center
06:16AM 47.4661 -122.2311 269° West 154 177 1,800 -120 Level Seattle Center
06:16AM 47.4661 -122.2419 270° West 146 168 1,700 -900 Descending Seattle Center
06:17AM 47.4869 -122.2686 319° Northwest 129 148 900 -1,140 Descending Seattle Center
06:17AM 47.4947 -122.2736 337° Northwest 134 154 600 -660 Descending Seattle Center
06:18AM 47.5264 -122.3000 331° Northwest 130 150 100 -540 Descending Seattle Center
06:20AM 47.5167 -122.3000 260° West  Level FlightAware Approximate